Metsäpalo Alkaa: 29-07-2021 19:23 Päättyy: 30-07-2021 19:00 Varoitus: Metsäpalo Taso: Keltainen info button
suomi:
Metsäpalovaroitus on voimassa.

svenska:
Varning för skogsbrand gäller.

english:
A forest fire warning is in force. 


Webkamera Lisätietoa Webcam


Yksityisiä sääasemia lähellä:

Sääasema Juupajoki

Sääasema Orivesi

Sääasema Muurame

Sääasema Jyväskylä

Sääasema Vihtavuori


Löydät sääaseman tiedot myös:

Finland Weather Exchange

European Weather Network

Weather Underground

AWEKAS

Windy.com



Säätiedot lähimmiltä METAR asemilta

   
EFHA - Halli (Fin-Afb), Finland
Etäisyys asemalta: Kaakko 25 km
Päivitetty: 29.07.2021 22:20
Selkeää  
Selkeää  
   Tuuli: Länsilounas 2.6 m/s
Tuuli: Länsilounas 2.6 m/s
Lämpötila: 17°C
Kastepiste: 15°C
Kosteus: 88%
Ilmanpaine: 996 hPa
Näkyvyys: Enemmän kuin 10 km
Pilvitiedot: Selkeää
EFHA 291920Z AUTO 25005KT CAVOK 17/15 Q0996
EFJY - Jyvaskyla (Mil/Civ), Finland
Etäisyys asemalta: Koillinen 75 km
Päivitetty: 29.07.2021 22:20
Heikkoja sadekuuroja, Sade, Melkein pilvistä  
Heikkoja sadekuuroja, Sade, Melkein pilvistä  
   Tuuli: Länsilounas 3.1 m/s
Tuuli: Länsilounas 3.1 m/s
Lämpötila: 18°C
Kastepiste: 17°C
Kosteus: 94%
Ilmanpaine: 995 hPa
Pilvisyys: Melkein pilvistä
Näkyvyys: Enemmän kuin 10 km
Pilvitiedot: Melkein pilvistä 244 m,
Ukkosta
EFJY 291920Z AUTO 25006KT 230V290 9999 -SHRA BKN008 //////CB 18/17 Q0995 RESHRA
EFTP - Tampere/Pirkkala, Finland
Etäisyys asemalta: Lounas 81 km
Päivitetty: 29.07.2021 22:20
Lähialueella sadekuuroja, Melkein pilvistä  
Lähialueella sadekuuroja, Melkein pilvistä  
   Tuuli: Lounas 3.6 m/s
Tuuli: Lounas 3.6 m/s
Lämpötila: 18°C
Kastepiste: 15°C
Kosteus: 83%
Ilmanpaine: 997 hPa
Pilvisyys: Melkein pilvistä
Näkyvyys: Enemmän kuin 10 km
Pilvitiedot: Melkein pilvistä 1250 m,
Ukkosta
EFTP 291920Z AUTO 22007KT 9999 VCSH BKN041 //////CB 18/15 Q0997
EFSI - Seinajoki-Ilmajoki, Finland
Etäisyys asemalta: Luode 114 km
Päivitetty: 29.07.2021 22:20
Melkein pilvistä  
Melkein pilvistä  
   Tuuli: Vaihtelee 1 m/s
Tuuli: Vaihtelee 1 m/s
Lämpötila: 17°C
Kastepiste: 16°C
Kosteus: 94%
Ilmanpaine: 995 hPa
Pilvisyys: Melkein pilvistä
Näkyvyys: Enemmän kuin 10 km
Pilvitiedot: Vähäistä pilvisyyttä 1036 m,
Puolipilvistä 1433 m,
Melkein pilvistä 3048 m
EFSI 291920Z AUTO VRB02KT 9999 FEW034 SCT047 BKN100 17/16 Q0995
EFMI - Mikkeli, Finland
Etäisyys asemalta: Itäkaakko 147 km
Päivitetty: 29.07.2021 22:20
Puolipilvistä  
Puolipilvistä  
   Tuuli: Lounas 1 m/s
Tuuli: Lounas 1 m/s
Lämpötila: 17°C
Kastepiste: 16°C
Kosteus: 94%
Ilmanpaine: 996 hPa
Pilvisyys: Puolipilvistä
Näkyvyys: Enemmän kuin 10 km
Pilvitiedot: Puolipilvistä 1219 m
EFMI 291920Z AUTO 23002KT 9999 SCT040 17/16 Q0996
EFPO - Pori (Mil/Civ), Finland
Etäisyys asemalta: Länsilounas 154 km
Päivitetty: 29.07.2021 22:20
Selkeää  
Selkeää  
   Tuuli: Etelälounas 3.1 m/s
Tuuli: Etelälounas 3.1 m/s
Lämpötila: 18°C
Kastepiste: 15°C
Kosteus: 83%
Ilmanpaine: 996 hPa
Näkyvyys: Enemmän kuin 10 km
Pilvitiedot: Selkeää
EFPO 291920Z AUTO 20006KT CAVOK 18/15 Q0996
EFUT - Utti (Fin-Afb), Finland
Etäisyys asemalta: Kaakko 180 km
Päivitetty: 29.07.2021 22:20
Selkeää  
Selkeää  
   Tuuli: Lounas 4.6 m/s
Tuuli: Lounas 4.6 m/s
Lämpötila: 20°C
Kastepiste: 15°C
Kosteus: 73%
Ilmanpaine: 998 hPa
Näkyvyys: Enemmän kuin 10 km
Pilvitiedot: Selkeää
EFUT 291920Z AUTO 22009KT 190V250 CAVOK 20/15 Q0998
EFVA - Vaasa, Finland
Etäisyys asemalta: Luode 180 km
Päivitetty: 29.07.2021 22:20
Sadekuuroja, Sade, Vähäistä pilvisyyttä  
Sadekuuroja, Sade, Vähäistä pilvisyyttä  
   Tuuli: Lounas 4.1 m/s
Tuuli: Lounas 4.1 m/s
Lämpötila: 18°C
Kastepiste: 18°C
Kosteus: 100%
Ilmanpaine: 994 hPa
Pilvisyys: Vähäistä pilvisyyttä
Näkyvyys: Enemmän kuin 10 km
Pilvitiedot: Vähäistä pilvisyyttä 152 m,
Ukkosta
EFVA 291920Z AUTO 22008KT 190V250 9999 SHRA FEW005 //////CB 18/18 Q0994
EFHK - Helsinki/Vantaa, Finland
Etäisyys asemalta: Etelä 191 km
Päivitetty: 29.07.2021 22:20
Vähäistä pilvisyyttä  
Vähäistä pilvisyyttä  
   Tuuli: Etelälounas 5.1 m/s
Tuuli: Etelälounas 5.1 m/s
Lämpötila: 19°C
Kastepiste: 16°C
Kosteus: 83%
Ilmanpaine: 999 hPa
Pilvisyys: Vähäistä pilvisyyttä
Näkyvyys: Enemmän kuin 10 km
Pilvitiedot: Vähäistä pilvisyyttä 1067 m
EFHK 291920Z 21010KT 9999 FEW035 19/16 Q0999 NOSIG

Alkuperäinen skripti  Saratoga-weather.org Sovitettu myös templatelle  Weerstation Leuven

Laitteet joita käytämme:

Sääasema
Davis VP2

Sääasemaohjelma
Cumulus

Sääaseman palvelin
HP ProBook 6460b

Palveluntarjoaja
Radicenter

Davis VP2

Cumulus

HP ProBook 6460b

Radicenter




Flag Counter Cumulus Top Weather Sites